createdAt,value
2016-02-27T00:02:32.095Z,1009.62
2016-02-27T00:05:44.918Z,1009.62
2016-02-27T00:08:57.818Z,1009.62
2016-02-27T00:12:05.262Z,1009.68
2016-02-27T00:15:08.865Z,1009.58
2016-02-27T00:18:18.435Z,1009.64
2016-02-27T00:21:27.912Z,1009.6
2016-02-27T00:24:36.594Z,1009.46
2016-02-27T00:27:44.805Z,1009.48
2016-02-27T00:30:58.907Z,1009.5
2016-02-27T00:34:02.463Z,1009.48
2016-02-27T00:37:14.690Z,1009.5
2016-02-27T00:40:27.213Z,1009.44
2016-02-27T00:43:39.662Z,1009.44
2016-02-27T00:46:52.013Z,1009.48
2016-02-27T00:50:03.740Z,1009.52
2016-02-27T00:53:16.311Z,1009.54
2016-02-27T00:56:28.944Z,1009.54
2016-02-27T00:59:41.548Z,1009.54
2016-02-27T01:02:58.166Z,1009.48
2016-02-27T01:06:05.783Z,1009.44
2016-02-27T01:09:09.213Z,1009.46
2016-02-27T01:12:21.565Z,1009.44
2016-02-27T01:15:33.963Z,1009.34
2016-02-27T01:18:44.723Z,1009.44
2016-02-27T01:22:00.982Z,1009.36
2016-02-27T01:25:04.569Z,1009.44
2016-02-27T01:28:14.764Z,1009.34
2016-02-27T01:31:26.257Z,1009.38
2016-02-27T01:34:38.596Z,1009.48
2016-02-27T01:37:50.650Z,1009.38
2016-02-27T01:41:07.049Z,1009.42
2016-02-27T01:44:10.588Z,1009.24
2016-02-27T01:47:23.112Z,1009.42
2016-02-27T01:50:35.417Z,1009.34
2016-02-27T01:53:47.943Z,1009.34
2016-02-27T01:57:04.295Z,1009.2
2016-02-27T02:00:07.709Z,1009.24
2016-02-27T02:03:18.358Z,1009.14
2016-02-27T02:06:30.805Z,1009.22
2016-02-27T02:09:42.799Z,1009.12
2016-02-27T02:12:58.963Z,1009.18
2016-02-27T02:16:06.269Z,1009.18
2016-02-27T02:19:09.589Z,1009.14
2016-02-27T02:22:19.706Z,1009.14
2016-02-27T02:25:31.574Z,1009.12
2016-02-27T02:28:42.694Z,1009.14
2016-02-27T02:32:00.139Z,1009.12
2016-02-27T02:35:07.476Z,1009.12
2016-02-27T02:38:10.827Z,1009.02
2016-02-27T02:41:22.929Z,1009.06
2016-02-27T02:44:32.219Z,1009
2016-02-27T02:47:41.338Z,1009.1
2016-02-27T02:50:53.597Z,1009.14
2016-02-27T02:54:05.652Z,1009.16
2016-02-27T02:57:14.878Z,1009.18
2016-02-27T03:00:27.152Z,1009.14
2016-02-27T03:03:39.254Z,1009.08
2016-02-27T03:06:51.686Z,1009.12
2016-02-27T03:10:06.492Z,1009
2016-02-27T03:13:09.766Z,1008.96
2016-02-27T03:16:21.882Z,1008.94
2016-02-27T03:19:34.297Z,1009.1
2016-02-27T03:22:46.354Z,1009
2016-02-27T03:25:59.910Z,1009.08
2016-02-27T03:29:07.168Z,1008.98
2016-02-27T03:32:10.473Z,1009.14
2016-02-27T03:35:19.902Z,1009.06
2016-02-27T03:38:31.989Z,1009.16
2016-02-27T03:41:44.124Z,1009.12
2016-02-27T03:44:52.977Z,1009.1
2016-02-27T03:48:05.141Z,1009.06
2016-02-27T03:51:17.507Z,1009.04
2016-02-27T03:54:27.016Z,1009.04
2016-02-27T03:57:38.868Z,1009.18
2016-02-27T04:00:50.457Z,1009.02
2016-02-27T04:04:06.028Z,1009.14
2016-02-27T04:07:09.019Z,1009.02
2016-02-27T04:10:18.106Z,1008.98
2016-02-27T04:13:30.052Z,1009.06
2016-02-27T04:16:42.185Z,1009.02
2016-02-27T04:19:58.258Z,1009.08
2016-02-27T04:23:05.532Z,1009.14
2016-02-27T04:26:08.477Z,1009.12
2016-02-27T04:29:20.298Z,1009.18
2016-02-27T04:32:32.315Z,1009.28
2016-02-27T04:35:44.104Z,1009.22
2016-02-27T04:39:00.094Z,1009.08
2016-02-27T04:42:07.175Z,1009.24
2016-02-27T04:45:10.087Z,1009.18
2016-02-27T04:48:22.076Z,1009.3
2016-02-27T04:51:33.942Z,1009.2
2016-02-27T04:54:43.965Z,1009.26
2016-02-27T04:57:52.647Z,1009.24
2016-02-27T05:01:04.639Z,1009.24
2016-02-27T05:04:16.258Z,1009.3
2016-02-27T05:07:28.233Z,1009.16
2016-02-27T05:10:40.149Z,1009.26
2016-02-27T05:13:52.284Z,1009.22
2016-02-27T05:17:04.370Z,1009.26
2016-02-27T05:20:14.019Z,1009.12
2016-02-27T05:23:23.870Z,1009.26
2016-02-27T05:26:35.895Z,1009.32
2016-02-27T05:29:48.090Z,1009.28
2016-02-27T05:33:04.085Z,1009.4
2016-02-27T05:36:07.234Z,1009.36
2016-02-27T05:39:19.085Z,1009.42
2016-02-27T05:42:31.188Z,1009.44
2016-02-27T05:45:41.024Z,1009.44
2016-02-27T05:48:53.003Z,1009.46
2016-02-27T05:52:07.215Z,1009.48
2016-02-27T05:55:10.176Z,1009.42
2016-02-27T05:58:22.231Z,1009.42
2016-02-27T06:01:34.270Z,1009.56
2016-02-27T06:04:46.450Z,1009.54
2016-02-27T06:08:02.507Z,1009.56
2016-02-27T06:11:05.469Z,1009.6
2016-02-27T06:14:17.399Z,1009.64
2016-02-27T06:17:27.344Z,1009.46
2016-02-27T06:20:39.368Z,1009.7
2016-02-27T06:23:50.892Z,1009.62
2016-02-27T06:27:04.606Z,1009.54
2016-02-27T06:30:07.801Z,1009.52
2016-02-27T06:33:17.403Z,1009.68
2016-02-27T06:36:28.442Z,1009.54
2016-02-27T06:39:40.606Z,1009.64
2016-02-27T06:42:52.257Z,1009.58
2016-02-27T06:46:07.922Z,1009.52
2016-02-27T06:49:11.227Z,1009.52
2016-02-27T06:52:21.673Z,1009.44
2016-02-27T06:55:33.743Z,1009.5
2016-02-27T06:58:42.829Z,1009.52
2016-02-27T07:01:58.481Z,1009.34
2016-02-27T07:05:05.723Z,1009.42
2016-02-27T07:08:09.045Z,1009.42
2016-02-27T07:11:18.599Z,1009.36
2016-02-27T07:14:28.154Z,1009.4
2016-02-27T07:17:40.319Z,1009.32
2016-02-27T07:20:52.810Z,1009.26
2016-02-27T07:24:05.150Z,1009.24
2016-02-27T07:27:14.923Z,1009.14
2016-02-27T07:30:27.525Z,1009.22
2016-02-27T07:33:37.831Z,1009.08
2016-02-27T07:36:50.416Z,1009.02
2016-02-27T07:40:04.006Z,1009.1
2016-02-27T07:43:07.763Z,1009.06
2016-02-27T07:46:20.724Z,1009.1
2016-02-27T07:49:33.342Z,1008.82
2016-02-27T07:52:46.350Z,1008.92
2016-02-27T07:56:03.407Z,1008.62
2016-02-27T07:59:07.790Z,1008.36
2016-02-27T08:02:21.298Z,1008.28
2016-02-27T08:05:34.713Z,1008.28
2016-02-27T08:08:45.331Z,1008.64
2016-02-27T08:12:02.950Z,1008.32
2016-02-27T08:15:07.739Z,1008.56
2016-02-27T08:18:21.341Z,1008.56
2016-02-27T08:21:34.913Z,1008.64
2016-02-27T08:24:46.717Z,1008.64
2016-02-27T08:28:02.134Z,1008.5
2016-02-27T08:31:07.096Z,1008.28
2016-02-27T08:34:18.962Z,1007.98
2016-02-27T08:37:29.581Z,1007.57
2016-02-27T08:40:41.979Z,1007.29
2016-02-27T08:44:00.803Z,1007.35
2016-02-27T08:47:07.294Z,1007.43
2016-02-27T08:50:19.584Z,1007.43
2016-02-27T08:53:34.561Z,1007.61
2016-02-27T08:56:49.241Z,1007.59
2016-02-27T09:00:07.767Z,1007.61
2016-02-27T09:03:13.994Z,1007.49
2016-02-27T09:06:29.048Z,1007.19
2016-02-27T09:09:40.994Z,1006.97
2016-02-27T09:12:53.722Z,1007.23
2016-02-27T09:16:08.701Z,1007.27
2016-02-27T09:19:23.818Z,1007.29
2016-02-27T09:22:35.857Z,1007.03
2016-02-27T09:25:48.927Z,1006.69
2016-02-27T09:29:08.064Z,1007.01
2016-02-27T09:32:14.462Z,1007.09
2016-02-27T09:35:27.423Z,1007.15
2016-02-27T09:38:40.526Z,1007.25
2016-02-27T09:41:59.018Z,1007.37
2016-02-27T09:45:05.107Z,1007.39
2016-02-27T09:48:16.896Z,1007.41
2016-02-27T09:51:31.122Z,1007.27
2016-02-27T09:54:45.194Z,1007.41
2016-02-27T09:58:01.280Z,1007.81
2016-02-27T10:01:06.243Z,1008.02
2016-02-27T10:04:19.392Z,1008.06
2016-02-27T10:07:32.447Z,1008.08
2016-02-27T10:10:43.049Z,1008.18
2016-02-27T10:13:59.323Z,1008.38
2016-02-27T10:17:07.365Z,1008.56
2016-02-27T10:20:11.436Z,1008.62
2016-02-27T10:23:24.255Z,1008.64
2016-02-27T10:26:35.077Z,1008.76
2016-02-27T10:29:45.819Z,1008.86
2016-02-27T10:32:59.155Z,1008.98
2016-02-27T10:36:07.540Z,1008.9
2016-02-27T10:39:12.142Z,1008.86
2016-02-27T10:42:22.932Z,1009
2016-02-27T10:45:32.768Z,1008.78
2016-02-27T10:48:45.714Z,1008.86
2016-02-27T10:52:02.691Z,1008.94
2016-02-27T10:55:06.608Z,1008.9
2016-02-27T10:58:17.475Z,1008.78
2016-02-27T11:01:29.952Z,1008.74
2016-02-27T11:04:39.741Z,1008.74
2016-02-27T11:07:50.171Z,1008.7
2016-02-27T11:11:06.509Z,1008.68
2016-02-27T11:14:09.815Z,1008.64
2016-02-27T11:17:22.323Z,1008.66
2016-02-27T11:20:34.597Z,1008.66
2016-02-27T11:23:46.167Z,1008.72
2016-02-27T11:27:01.582Z,1008.64
2016-02-27T11:30:08.030Z,1008.62
2016-02-27T11:33:10.553Z,1008.54
2016-02-27T11:36:22.702Z,1008.62
2016-02-27T11:39:35.007Z,1008.6
2016-02-27T11:42:47.062Z,1008.54
2016-02-27T11:46:02.977Z,1008.5
2016-02-27T11:49:06.406Z,1008.62
2016-02-27T11:52:16.964Z,1008.54
2016-02-27T11:55:26.816Z,1008.74
2016-02-27T11:58:39.449Z,1008.54
2016-02-27T12:01:52.036Z,1008.62
2016-02-27T12:05:07.434Z,1008.62
2016-02-27T12:08:11.460Z,1008.52
2016-02-27T12:11:22.546Z,1008.5
2016-02-27T12:14:35.382Z,1008.38
2016-02-27T12:17:48.032Z,1008.46
2016-02-27T12:21:05.242Z,1008.32
2016-02-27T12:24:09.566Z,1008.34
2016-02-27T12:27:23.277Z,1008.28
2016-02-27T12:30:33.160Z,1008.2
2016-02-27T12:33:43.169Z,1008.2
2016-02-27T12:37:00.317Z,1008.22
2016-02-27T12:40:08.450Z,1008.3
2016-02-27T12:43:12.679Z,1008.28
2016-02-27T12:46:25.593Z,1008.34
2016-02-27T12:49:38.570Z,1008.32
2016-02-27T12:52:51.642Z,1008.48
2016-02-27T12:56:07.102Z,1008.38
2016-02-27T12:59:11.363Z,1008.3
2016-02-27T13:02:24.418Z,1008.24
2016-02-27T13:05:34.880Z,1008.34
2016-02-27T13:08:47.872Z,1008.16
2016-02-27T13:12:03.207Z,1008.22
2016-02-27T13:15:07.607Z,1008.22
2016-02-27T13:18:18.867Z,1008.36
2016-02-27T13:21:32.079Z,1008.26
2016-02-27T13:24:45.150Z,1008.38
2016-02-27T13:27:59.736Z,1008.06
2016-02-27T13:31:07.916Z,1008.16
2016-02-27T13:34:12.191Z,1008.18
2016-02-27T13:37:25.169Z,1008.32
2016-02-27T13:40:35.826Z,1008.48
2016-02-27T13:43:49.022Z,1008.34
2016-02-27T13:47:02.346Z,1008.34
2016-02-27T13:50:06.599Z,1008.38
2016-02-27T13:53:19.339Z,1008.32
2016-02-27T13:56:30.565Z,1008.36
2016-02-27T13:59:42.198Z,1008.34
2016-02-27T14:02:59.270Z,1008.44
2016-02-27T14:06:07.761Z,1008.28
2016-02-27T14:09:12.175Z,1008.34
2016-02-27T14:12:23.811Z,1008.24
2016-02-27T14:15:37.038Z,1008.24
2016-02-27T14:18:48.515Z,1008.24
2016-02-27T14:22:03.445Z,1008.18
2016-02-27T14:25:08.015Z,1008.28
2016-02-27T14:28:21.152Z,1008.32
2016-02-27T14:31:32.853Z,1008.32
2016-02-27T14:34:46.001Z,1008.36
2016-02-27T14:38:03.166Z,1008.26
2016-02-27T14:41:07.404Z,1008.34
2016-02-27T14:44:20.554Z,1008.3
2016-02-27T14:47:30.984Z,1008.34
2016-02-27T14:50:44.150Z,1008.3
2016-02-27T14:54:01.297Z,1008.28
2016-02-27T14:57:05.352Z,1008.24
2016-02-27T15:00:16.049Z,1008.18
2016-02-27T15:03:26.403Z,1008.2
2016-02-27T15:06:39.145Z,1008.24
2016-02-27T15:09:50.512Z,1008.2
2016-02-27T15:13:07.270Z,1008.16
2016-02-27T15:16:11.278Z,1008.2
2016-02-27T15:19:24.665Z,1008.16
2016-02-27T15:22:35.844Z,1008.14
2016-02-27T15:25:48.884Z,1008.1
2016-02-27T15:29:05.783Z,1008.16
2016-02-27T15:32:09.681Z,1008.04
2016-02-27T15:35:22.630Z,1008.14
2016-02-27T15:38:35.232Z,1008.12
2016-02-27T15:41:45.662Z,1008.18
2016-02-27T15:44:59.575Z,1008.08
2016-02-27T15:48:07.739Z,1008.2
2016-02-27T15:51:11.919Z,1008.2
2016-02-27T15:54:23.867Z,1008.22
2016-02-27T15:57:33.375Z,1008.16
2016-02-27T16:00:46.290Z,1008.04
2016-02-27T16:03:59.766Z,1008.12
2016-02-27T16:07:07.697Z,1008.1
2016-02-27T16:10:11.518Z,1008.2
2016-02-27T16:13:24.450Z,1008.14
2016-02-27T16:16:37.084Z,1008.14
2016-02-27T16:19:48.545Z,1008.26
2016-02-27T16:23:03.225Z,1008.22
2016-02-27T16:26:07.498Z,1008.16
2016-02-27T16:29:20.413Z,1008.22
2016-02-27T16:32:30.658Z,1008.26
2016-02-27T16:35:43.274Z,1008.28
2016-02-27T16:38:59.815Z,1008.28
2016-02-27T16:42:07.385Z,1008.3
2016-02-27T16:45:10.956Z,1008.26
2016-02-27T16:48:21.339Z,1008.28
2016-02-27T16:51:33.896Z,1008.46
2016-02-27T16:54:46.358Z,1008.44
2016-02-27T16:58:03.100Z,1008.43
2016-02-27T17:01:06.811Z,1008.32
2016-02-27T17:04:19.351Z,1008.5
2016-02-27T17:07:32.048Z,1008.44
2016-02-27T17:10:41.307Z,1008.48
2016-02-27T17:13:50.893Z,1008.48
2016-02-27T17:17:07.543Z,1008.56
2016-02-27T17:20:11.065Z,1008.56
2016-02-27T17:23:23.293Z,1008.7
2016-02-27T17:26:35.912Z,1008.7
2016-02-27T17:29:48.093Z,1008.82
2016-02-27T17:33:04.444Z,1008.78
2016-02-27T17:36:07.827Z,1008.86
2016-02-27T17:39:20.429Z,1008.84
2016-02-27T17:42:32.955Z,1008.9
2016-02-27T17:45:45.229Z,1008.92
2016-02-27T17:49:01.924Z,1008.84
2016-02-27T17:52:09.432Z,1008.98
2016-02-27T17:55:12.909Z,1009.04
2016-02-27T17:58:23.106Z,1009.1
2016-02-27T18:01:35.584Z,1009.1
2016-02-27T18:04:47.031Z,1009.1
2016-02-27T18:08:04.710Z,1009.2
2016-02-27T18:11:08.422Z,1009.1
2016-02-27T18:14:17.789Z,1009.18
2016-02-27T18:17:29.752Z,1009.12
2016-02-27T18:20:39.183Z,1009.1
2016-02-27T18:23:51.831Z,1009.04
2016-02-27T18:27:08.261Z,1009.16
2016-02-27T18:30:11.801Z,1009.14
2016-02-27T18:33:21.855Z,1009.24
2016-02-27T18:36:34.320Z,1009.16
2016-02-27T18:39:46.640Z,1009.2
2016-02-27T18:43:03.211Z,1009.2
2016-02-27T18:46:06.532Z,1009.2
2016-02-27T18:49:18.960Z,1009.24
2016-02-27T18:52:31.346Z,1009.24
2016-02-27T18:55:40.387Z,1009.24
2016-02-27T18:58:52.457Z,1009.28
2016-02-27T19:02:09.714Z,1009.2
2016-02-27T19:05:12.520Z,1009.24
2016-02-27T19:08:20.683Z,1009.3
2016-02-27T19:11:33.084Z,1009.18
2016-02-27T19:14:43.747Z,1009.24
2016-02-27T19:18:00.256Z,1009.2
2016-02-27T19:21:07.545Z,1009.2
2016-02-27T19:24:10.882Z,1009.2
2016-02-27T19:27:23.077Z,1009.08
2016-02-27T19:30:33.526Z,1009.2
2016-02-27T19:33:43.048Z,1009.12
2016-02-27T19:36:55.073Z,1009.24
2016-02-27T19:40:07.206Z,1009.22
2016-02-27T19:43:17.511Z,1009.24
2016-02-27T19:46:27.534Z,1009.24
2016-02-27T19:49:39.544Z,1009.26
2016-02-27T19:52:51.475Z,1009.28
2016-02-27T19:56:07.217Z,1009.32
2016-02-27T19:59:10.163Z,1009.38
2016-02-27T20:02:18.937Z,1009.46
2016-02-27T20:05:31.007Z,1009.34
2016-02-27T20:08:41.564Z,1009.28
2016-02-27T20:11:53.276Z,1009.22
2016-02-27T20:15:08.722Z,1009.22
2016-02-27T20:18:11.745Z,1009.28
2016-02-27T20:21:23.488Z,1009.38
2016-02-27T20:24:35.436Z,1009.26
2016-02-27T20:27:46.991Z,1009.32
2016-02-27T20:31:02.405Z,1009.42
2016-02-27T20:34:09.038Z,1009.34
2016-02-27T20:37:11.750Z,1009.34
2016-02-27T20:40:23.008Z,1009.38
2016-02-27T20:43:34.393Z,1009.36
2016-02-27T20:46:45.214Z,1009.34
2016-02-27T20:50:00.519Z,1009.42
2016-02-27T20:53:06.793Z,1009.48
2016-02-27T20:56:09.269Z,1009.36
2016-02-27T20:59:16.980Z,1009.42
2016-02-27T21:02:26.410Z,1009.36
2016-02-27T21:05:37.907Z,1009.42
2016-02-27T21:08:46.852Z,1009.52
2016-02-27T21:12:01.972Z,1009.48
2016-02-27T21:15:08.215Z,1009.42
2016-02-27T21:18:10.613Z,1009.44
2016-02-27T21:21:21.716Z,1009.46
2016-02-27T21:24:32.708Z,1009.46
2016-02-27T21:27:43.890Z,1009.32
2016-02-27T21:30:54.992Z,1009.46
2016-02-27T21:34:06.423Z,1009.46
2016-02-27T21:37:17.649Z,1009.48
2016-02-27T21:40:25.908Z,1009.34
2016-02-27T21:43:34.009Z,1009.4
2016-02-27T21:46:44.802Z,1009.32
2016-02-27T21:49:54.684Z,1009.28
2016-02-27T21:53:09.974Z,1009.34
2016-02-27T21:56:12.294Z,1009.3
2016-02-27T21:59:23.678Z,1009.32
2016-02-27T22:02:34.935Z,1009.18
2016-02-27T22:05:46.025Z,1009.38
2016-02-27T22:09:01.344Z,1009.3
2016-02-27T22:12:07.946Z,1009.26
2016-02-27T22:15:10.438Z,1009.44
2016-02-27T22:18:18.479Z,1009.36
2016-02-27T22:21:29.924Z,1009.34
2016-02-27T22:24:41.107Z,1009.38
2016-02-27T22:27:49.676Z,1009.36
2016-02-27T22:31:02.357Z,1009.42
2016-02-27T22:34:08.615Z,1009.38
2016-02-27T22:37:10.998Z,1009.48
2016-02-27T22:40:22.069Z,1009.36
2016-02-27T22:43:32.977Z,1009.32
2016-02-27T22:46:44.309Z,1009.36
2016-02-27T22:49:55.269Z,1009.4
2016-02-27T22:53:08.016Z,1009.4
2016-02-27T22:56:10.066Z,1009.46
2016-02-27T22:59:18.166Z,1009.58
2016-02-27T23:02:28.970Z,1009.46
2016-02-27T23:05:36.757Z,1009.56
2016-02-27T23:08:46.612Z,1009.54
2016-02-27T23:11:54.432Z,1009.66
2016-02-27T23:15:08.081Z,1009.54
2016-02-27T23:18:10.308Z,1009.6
2016-02-27T23:21:21.566Z,1009.64
2016-02-27T23:24:29.668Z,1009.66
2016-02-27T23:27:37.488Z,1009.58
2016-02-27T23:30:48.468Z,1009.64
2016-02-27T23:34:03.679Z,1009.58
2016-02-27T23:37:09.906Z,1009.64
2016-02-27T23:40:11.836Z,1009.66
2016-02-27T23:43:22.750Z,1009.78
2016-02-27T23:46:31.555Z,1009.68
2016-02-27T23:49:42.750Z,1009.68
2016-02-27T23:52:53.777Z,1009.74
2016-02-27T23:56:07.254Z,1009.89
2016-02-27T23:59:09.668Z,1009.8
